createdAt,value
2018-09-11T00:03:24.984Z,53.51
2018-09-11T00:08:17.559Z,53.02
2018-09-11T00:13:10.219Z,53.82
2018-09-11T00:18:02.963Z,54.35
2018-09-11T00:22:55.530Z,53.47
2018-09-11T00:27:48.144Z,54.58
2018-09-11T00:32:40.777Z,54.02
2018-09-11T00:37:33.330Z,54.62
2018-09-11T00:42:25.895Z,54.42
2018-09-11T00:47:18.492Z,54.34
2018-09-11T00:52:11.099Z,54.70
2018-09-11T00:57:03.667Z,54.11
2018-09-11T01:01:56.259Z,55.31
2018-09-11T01:06:48.900Z,55.30
2018-09-11T01:11:41.503Z,55.82
2018-09-11T01:16:34.084Z,55.15
2018-09-11T01:21:26.659Z,55.81
2018-09-11T01:26:19.223Z,55.82
2018-09-11T01:31:11.772Z,55.91
2018-09-11T01:36:04.457Z,55.55
2018-09-11T01:40:57.003Z,55.50
2018-09-11T01:45:49.578Z,55.29
2018-09-11T01:50:42.170Z,55.85
2018-09-11T01:55:34.800Z,56.15
2018-09-11T02:00:27.388Z,56.74
2018-09-11T02:05:20.017Z,56.22
2018-09-11T02:10:12.991Z,56.55
2018-09-11T02:15:05.854Z,56.91
2018-09-11T02:19:58.544Z,57.31
2018-09-11T02:24:51.106Z,56.95
2018-09-11T02:29:43.687Z,57.94
2018-09-11T02:34:36.232Z,57.48
2018-09-11T02:39:28.826Z,58.27
2018-09-11T02:44:21.445Z,58.61
2018-09-11T02:49:14.042Z,58.04
2018-09-11T02:54:06.735Z,57.39
2018-09-11T02:58:59.306Z,58.50
2018-09-11T03:03:51.851Z,58.21
2018-09-11T03:08:44.437Z,57.62
2018-09-11T03:13:37.175Z,57.93
2018-09-11T03:18:29.822Z,57.80
2018-09-11T03:23:22.359Z,57.78
2018-09-11T03:28:15.013Z,58.88
2018-09-11T03:33:07.919Z,58.96
2018-09-11T03:38:00.586Z,58.79
2018-09-11T03:42:53.167Z,58.08
2018-09-11T03:47:45.686Z,58.70
2018-09-11T03:52:38.432Z,58.23
2018-09-11T03:57:31.016Z,58.93
2018-09-11T04:02:23.570Z,58.55
2018-09-11T04:07:16.194Z,59.12
2018-09-11T04:12:08.802Z,58.80
2018-09-11T04:17:01.361Z,59.08
2018-09-11T04:21:53.887Z,58.70
2018-09-11T04:26:47.369Z,59.08
2018-09-11T04:31:40.065Z,59.23
2018-09-11T04:36:32.731Z,59.71
2018-09-11T04:41:25.323Z,60.87
2018-09-11T04:46:18.087Z,60.24
2018-09-11T04:51:10.771Z,60.66
2018-09-11T04:56:03.573Z,60.54
2018-09-11T05:00:56.226Z,60.29
2018-09-11T05:05:48.935Z,60.39
2018-09-11T05:10:41.570Z,60.83
2018-09-11T05:15:34.278Z,60.54
2018-09-11T05:20:26.797Z,60.81
2018-09-11T05:25:19.361Z,60.38
2018-09-11T05:30:11.874Z,60.20
2018-09-11T05:35:04.453Z,60.35
2018-09-11T05:39:57.031Z,60.66
2018-09-11T05:44:49.746Z,60.72
2018-09-11T05:49:42.357Z,59.93
2018-09-11T05:54:35.010Z,60.06
2018-09-11T05:59:27.568Z,60.38
2018-09-11T06:04:20.243Z,60.14
2018-09-11T06:09:13.349Z,59.21
2018-09-11T06:14:06.505Z,59.89
2018-09-11T06:18:59.228Z,60.21
2018-09-11T06:23:51.834Z,59.34
2018-09-11T06:28:44.438Z,59.30
2018-09-11T06:33:37.027Z,59.46
2018-09-11T06:38:29.639Z,58.93
2018-09-11T06:43:22.286Z,58.68
2018-09-11T06:48:14.916Z,59.32
2018-09-11T06:53:07.516Z,57.95
2018-09-11T06:58:00.186Z,57.97
2018-09-11T07:02:52.772Z,57.73
2018-09-11T07:07:45.455Z,57.01
2018-09-11T07:12:38.211Z,56.70
2018-09-11T07:17:30.746Z,57.01
2018-09-11T07:22:23.411Z,56.10
2018-09-11T07:27:16.019Z,56.60
2018-09-11T07:32:08.644Z,56.28
2018-09-11T07:37:01.270Z,55.12
2018-09-11T07:41:53.895Z,54.47
2018-09-11T07:46:46.439Z,54.29
2018-09-11T07:51:39.153Z,53.42
2018-09-11T07:56:31.683Z,53.72
2018-09-11T08:01:24.233Z,52.94
2018-09-11T08:06:16.823Z,53.44
2018-09-11T08:11:09.486Z,52.56
2018-09-11T08:16:02.128Z,52.39
2018-09-11T08:20:54.833Z,52.76
2018-09-11T08:25:47.474Z,52.44
2018-09-11T08:30:40.088Z,52.14
2018-09-11T08:35:32.825Z,51.18
2018-09-11T08:40:25.450Z,50.60
2018-09-11T08:45:18.177Z,49.84
2018-09-11T08:50:10.839Z,49.37
2018-09-11T08:55:03.559Z,48.88
2018-09-11T08:59:56.131Z,49.40
2018-09-11T09:04:48.816Z,48.75
2018-09-11T09:09:41.387Z,48.84
2018-09-11T09:14:33.975Z,48.82
2018-09-11T09:19:26.582Z,48.75
2018-09-11T09:24:19.162Z,48.42
2018-09-11T09:29:11.813Z,48.07
2018-09-11T09:34:04.429Z,48.02
2018-09-11T09:38:57.017Z,47.80
2018-09-11T09:43:49.614Z,47.31
2018-09-11T09:48:42.329Z,46.82
2018-09-11T09:53:34.920Z,46.09
2018-09-11T09:58:27.549Z,46.21
2018-09-11T10:03:20.456Z,45.99
2018-09-11T10:08:13.023Z,44.80
2018-09-11T10:13:05.684Z,44.90
2018-09-11T10:17:58.287Z,44.62
2018-09-11T10:22:50.896Z,44.21
2018-09-11T10:27:43.603Z,43.22
2018-09-11T10:32:36.267Z,42.90
2018-09-11T10:37:29.071Z,42.67
2018-09-11T10:42:22.646Z,41.99
2018-09-11T10:47:15.334Z,42.09
2018-09-11T10:52:08.353Z,40.28
2018-09-11T10:57:00.971Z,38.23
2018-09-11T11:01:53.786Z,37.64
2018-09-11T11:06:46.432Z,36.93
2018-09-11T11:11:39.533Z,36.55
2018-09-11T11:16:32.163Z,36.13
2018-09-11T11:21:24.729Z,36.12
2018-09-11T11:26:17.327Z,36.30
2018-09-11T11:31:09.866Z,36.67
2018-09-11T11:36:02.501Z,35.86
2018-09-11T11:40:55.097Z,36.50
2018-09-11T11:45:47.892Z,35.24
2018-09-11T11:50:40.444Z,34.37
2018-09-11T11:55:33.197Z,34.05
2018-09-11T12:00:25.755Z,33.55
2018-09-11T12:05:18.371Z,33.65
2018-09-11T12:10:10.942Z,34.34
2018-09-11T12:15:04.736Z,33.35
2018-09-11T12:19:57.318Z,34.18
2018-09-11T12:24:49.946Z,33.09
2018-09-11T12:29:42.679Z,32.75
2018-09-11T12:34:35.274Z,33.88
2018-09-11T12:39:27.892Z,33.57
2018-09-11T12:44:20.554Z,33.21
2018-09-11T12:49:13.090Z,33.13
2018-09-11T12:54:05.859Z,32.35
2018-09-11T12:58:58.585Z,32.33
2018-09-11T13:03:51.234Z,31.36
2018-09-11T13:08:43.787Z,31.04
2018-09-11T13:13:36.363Z,31.90
2018-09-11T13:18:29.047Z,31.44
2018-09-11T13:23:21.833Z,31.50
2018-09-11T13:28:14.509Z,31.67
2018-09-11T13:33:07.922Z,32.51
2018-09-11T13:38:00.571Z,31.25
2018-09-11T13:42:53.270Z,31.10
2018-09-11T13:47:46.668Z,31.39
2018-09-11T13:52:39.592Z,31.83
2018-09-11T13:57:32.303Z,31.06
2018-09-11T14:02:24.938Z,30.62
2018-09-11T14:07:17.640Z,33.04
2018-09-11T14:12:10.261Z,32.35
2018-09-11T14:17:02.939Z,32.18
2018-09-11T14:21:55.605Z,32.12
2018-09-11T14:26:48.270Z,31.67
2018-09-11T14:31:40.714Z,32.53
2018-09-11T14:36:33.444Z,32.03
2018-09-11T14:41:26.149Z,31.73
2018-09-11T14:46:19.020Z,32.45
2018-09-11T14:51:11.685Z,31.46
2018-09-11T14:56:04.784Z,31.72
2018-09-11T15:00:57.583Z,31.03
2018-09-11T15:05:50.287Z,32.87
2018-09-11T15:10:42.854Z,32.48
2018-09-11T15:15:35.454Z,32.87
2018-09-11T15:20:28.046Z,32.70
2018-09-11T15:25:20.643Z,32.58
2018-09-11T15:30:13.216Z,31.71
2018-09-11T15:35:05.967Z,33.02
2018-09-11T15:39:58.619Z,32.38
2018-09-11T15:44:51.237Z,32.14
2018-09-11T15:49:43.905Z,31.91
2018-09-11T15:54:36.675Z,31.67
2018-09-11T15:59:29.199Z,32.40
2018-09-11T16:04:21.847Z,31.63
2018-09-11T16:09:14.423Z,31.98
2018-09-11T16:14:07.751Z,31.98
2018-09-11T16:19:00.370Z,31.86
2018-09-11T16:23:53.040Z,31.06
2018-09-11T16:28:45.662Z,31.84
2018-09-11T16:33:38.334Z,31.59
2018-09-11T16:38:31.130Z,31.03
2018-09-11T16:43:23.827Z,30.94
2018-09-11T16:48:16.436Z,32.57
2018-09-11T16:53:09.095Z,32.15
2018-09-11T16:58:01.639Z,32.65
2018-09-11T17:02:54.200Z,32.97
2018-09-11T17:07:46.794Z,33.29
2018-09-11T17:12:39.379Z,33.50
2018-09-11T17:17:32.128Z,33.08
2018-09-11T17:22:24.949Z,33.44
2018-09-11T17:27:17.961Z,33.03
2018-09-11T17:32:10.619Z,34.15
2018-09-11T17:37:03.276Z,33.41
2018-09-11T17:41:55.969Z,33.96
2018-09-11T17:46:48.802Z,34.57
2018-09-11T17:51:41.559Z,34.20
2018-09-11T17:56:34.243Z,34.61
2018-09-11T18:01:26.981Z,35.31
2018-09-11T18:06:19.812Z,34.90
2018-09-11T18:11:12.406Z,36.00
2018-09-11T18:16:05.118Z,36.16
2018-09-11T18:20:57.892Z,36.35
2018-09-11T18:25:50.787Z,36.56
2018-09-11T18:30:43.638Z,36.55
2018-09-11T18:35:36.383Z,36.12
2018-09-11T18:40:29.217Z,37.13
2018-09-11T18:45:22.219Z,36.41
2018-09-11T18:50:17.077Z,36.19
2018-09-11T18:55:09.886Z,36.60
2018-09-11T19:00:02.682Z,36.21
2018-09-11T19:04:55.452Z,36.37
2018-09-11T19:09:48.180Z,35.82
2018-09-11T19:14:41.042Z,36.34
2018-09-11T19:19:33.863Z,36.45
2018-09-11T19:24:26.468Z,36.23
2018-09-11T19:29:19.059Z,37.12
2018-09-11T19:34:11.874Z,36.48
2018-09-11T19:39:06.086Z,36.70
2018-09-11T19:43:58.712Z,37.75
2018-09-11T19:48:51.256Z,37.48
2018-09-11T19:53:43.835Z,38.11
2018-09-11T19:58:36.567Z,38.26
2018-09-11T20:03:29.433Z,37.80
2018-09-11T20:08:22.086Z,38.80
2018-09-11T20:13:14.772Z,38.97
2018-09-11T20:18:07.534Z,38.77
2018-09-11T20:23:00.168Z,38.21
2018-09-11T20:27:52.812Z,38.16
2018-09-11T20:32:45.594Z,39.22
2018-09-11T20:37:38.363Z,38.49
2018-09-11T20:42:30.931Z,39.59
2018-09-11T20:47:23.554Z,39.75
2018-09-11T20:52:16.100Z,39.60
2018-09-11T20:57:08.973Z,39.35
2018-09-11T21:02:01.686Z,40.34
2018-09-11T21:06:54.287Z,40.57
2018-09-11T21:11:46.915Z,39.94
2018-09-11T21:16:39.510Z,40.19
2018-09-11T21:21:32.245Z,40.94
2018-09-11T21:26:24.837Z,40.83
2018-09-11T21:31:17.356Z,41.50
2018-09-11T21:36:09.832Z,40.85
2018-09-11T21:41:02.446Z,41.13
2018-09-11T21:50:54.227Z,42.44
2018-09-11T21:55:46.794Z,42.92
2018-09-11T22:00:44.064Z,43.14
2018-09-11T22:05:36.632Z,43.75
2018-09-11T22:10:29.374Z,43.74
2018-09-11T22:15:21.982Z,45.03
2018-09-11T22:20:14.551Z,44.71
2018-09-11T22:25:07.160Z,44.88
2018-09-11T22:29:59.764Z,45.19
2018-09-11T22:34:52.434Z,45.64
2018-09-11T22:39:44.990Z,46.01
2018-09-11T22:44:37.626Z,45.07
2018-09-11T22:49:30.215Z,45.80
2018-09-11T22:54:22.773Z,45.06
2018-09-11T22:59:15.364Z,44.95
2018-09-11T23:04:07.952Z,45.63
2018-09-11T23:09:00.516Z,45.92
2018-09-11T23:13:53.224Z,45.63
2018-09-11T23:18:45.821Z,46.12
2018-09-11T23:23:38.405Z,45.94
2018-09-11T23:28:30.988Z,46.40
2018-09-11T23:33:23.585Z,46.75
2018-09-11T23:38:16.189Z,47.05
2018-09-11T23:43:08.891Z,46.93
2018-09-11T23:48:01.516Z,47.92
2018-09-11T23:52:54.099Z,47.66
2018-09-11T23:57:46.630Z,47.92
